createdAt,value
2023-02-28T00:03:38.510Z,56.30
2023-02-28T00:08:42.040Z,56.30
2023-02-28T00:13:48.376Z,56.40
2023-02-28T00:18:53.512Z,56.40
2023-02-28T00:23:56.902Z,56.40
2023-02-28T00:29:00.503Z,56.40
2023-02-28T00:34:05.250Z,56.30
2023-02-28T00:39:08.755Z,56.30
2023-02-28T00:44:12.170Z,56.30
2023-02-28T00:49:17.013Z,56.30
2023-02-28T00:54:20.540Z,56.40
2023-02-28T00:59:24.583Z,56.40
2023-02-28T01:04:29.863Z,56.30
2023-02-28T01:09:34.253Z,56.30
2023-02-28T01:14:38.087Z,56.30
2023-02-28T01:19:42.959Z,56.40
2023-02-28T01:24:48.369Z,56.40
2023-02-28T01:29:53.780Z,56.40
2023-02-28T01:34:59.158Z,56.40
2023-02-28T01:40:02.568Z,56.40
2023-02-28T01:45:20.893Z,56.30
2023-02-28T01:50:28.886Z,56.40
2023-02-28T01:55:32.760Z,56.40
2023-02-28T02:00:36.494Z,56.50
2023-02-28T02:05:42.985Z,56.60
2023-02-28T02:10:50.343Z,56.60
2023-02-28T02:16:05.012Z,56.60
2023-02-28T02:21:50.960Z,56.60
2023-02-28T02:27:23.561Z,56.70
2023-02-28T02:33:09.774Z,56.70
2023-02-28T02:38:21.732Z,56.80
2023-02-28T02:43:31.697Z,56.70
2023-02-28T02:48:38.105Z,56.80
2023-02-28T02:53:47.339Z,56.70
2023-02-28T02:58:53.241Z,56.80
2023-02-28T03:03:59.597Z,56.70
2023-02-28T03:09:06.055Z,56.70
2023-02-28T03:14:31.822Z,56.80
2023-02-28T03:19:49.698Z,56.90
2023-02-28T03:24:59.565Z,56.80
2023-02-28T03:30:10.527Z,56.70
2023-02-28T03:35:22.935Z,56.70
2023-02-28T03:40:33.497Z,56.80
2023-02-28T03:45:41.249Z,56.90
2023-02-28T03:50:47.001Z,56.80
2023-02-28T03:55:56.255Z,56.80
2023-02-28T04:01:08.945Z,56.90
2023-02-28T04:06:19.073Z,57.00
2023-02-28T04:11:29.662Z,57.00
2023-02-28T04:16:35.801Z,57.00
2023-02-28T04:21:41.454Z,57.00
2023-02-28T04:26:47.369Z,57.00
2023-02-28T04:31:51.008Z,57.00
2023-02-28T04:37:11.515Z,57.10
2023-02-28T04:42:17.637Z,57.10
2023-02-28T04:47:21.196Z,57.10
2023-02-28T04:52:24.827Z,57.10
2023-02-28T04:57:31.212Z,57.20
2023-02-28T05:02:37.310Z,57.30
2023-02-28T05:07:40.908Z,57.30
2023-02-28T05:12:45.800Z,57.20
2023-02-28T05:17:49.362Z,57.30
2023-02-28T05:22:53.779Z,57.30
2023-02-28T05:28:01.377Z,57.30
2023-02-28T05:33:05.377Z,57.40
2023-02-28T05:38:09.073Z,57.30
2023-02-28T05:43:14.719Z,57.40
2023-02-28T05:48:19.204Z,57.40
2023-02-28T05:53:23.114Z,57.30
2023-02-28T05:58:31.826Z,57.40
2023-02-28T06:03:35.456Z,57.50
2023-02-28T06:08:38.906Z,57.50
2023-02-28T06:13:43.792Z,57.60
2023-02-28T06:18:47.326Z,57.70
2023-02-28T06:23:51.014Z,57.70
2023-02-28T06:28:56.490Z,57.70
2023-02-28T06:33:59.991Z,57.90
2023-02-28T06:39:03.651Z,57.90
2023-02-28T06:44:16.482Z,57.90
2023-02-28T06:49:20.388Z,58.00
2023-02-28T06:54:24.042Z,58.00
2023-02-28T06:59:29.091Z,58.00
2023-02-28T07:04:32.548Z,58.20
2023-02-28T07:09:36.279Z,58.10
2023-02-28T07:14:41.187Z,58.30
2023-02-28T07:19:44.762Z,58.30
2023-02-28T07:24:48.262Z,58.40
2023-02-28T07:29:53.144Z,58.40
2023-02-28T07:34:56.845Z,58.50
2023-02-28T07:40:00.718Z,58.40
2023-02-28T07:45:06.664Z,58.50
2023-02-28T07:50:12.111Z,58.70
2023-02-28T07:55:17.730Z,58.70
2023-02-28T08:00:23.478Z,58.60
2023-02-28T08:05:27.122Z,58.70
2023-02-28T08:10:30.506Z,58.70
2023-02-28T08:15:35.474Z,58.60
2023-02-28T08:20:38.909Z,58.80
2023-02-28T08:25:42.859Z,59.40
2023-02-28T08:30:47.691Z,58.70
2023-02-28T08:35:51.115Z,58.70
2023-02-28T08:41:02.110Z,58.70
2023-02-28T08:46:07.440Z,58.90
2023-02-28T08:51:12.545Z,58.80
2023-02-28T08:56:17.792Z,58.70
2023-02-28T09:08:22.690Z,58.80
2023-02-28T09:13:27.042Z,58.50
2023-02-28T09:18:31.045Z,58.60
2023-02-28T09:23:35.912Z,58.70
2023-02-28T09:28:39.536Z,58.60
2023-02-28T09:33:43.469Z,58.80
2023-02-28T09:38:49.762Z,58.80
2023-02-28T09:43:56.194Z,58.80
2023-02-28T09:49:01.375Z,58.70
2023-02-28T09:54:06.429Z,58.70
2023-02-28T09:59:20.562Z,58.70
2023-02-28T10:04:39.008Z,58.40
2023-02-28T10:09:44.515Z,58.10
2023-02-28T10:14:51.225Z,57.90
2023-02-28T10:20:09.853Z,57.70
2023-02-28T10:25:21.750Z,57.50
2023-02-28T10:30:25.505Z,57.60
2023-02-28T10:35:29.404Z,57.90
2023-02-28T10:40:36.702Z,57.80
2023-02-28T10:45:40.834Z,57.70
2023-02-28T10:50:46.474Z,57.80
2023-02-28T10:55:59.546Z,57.80
2023-02-28T11:01:03.025Z,57.50
2023-02-28T11:06:15.206Z,57.90
2023-02-28T11:11:20.805Z,57.20
2023-02-28T11:16:34.035Z,57.10
2023-02-28T11:21:41.356Z,56.90
2023-02-28T11:26:47.922Z,56.80
2023-02-28T11:32:15.468Z,56.50
2023-02-28T11:37:21.011Z,56.20
2023-02-28T11:42:41.406Z,56.50
2023-02-28T11:47:50.552Z,55.80
2023-02-28T11:52:56.246Z,55.60
2023-02-28T11:58:27.142Z,55.60
2023-02-28T12:03:42.740Z,54.30
2023-02-28T12:08:55.393Z,54.70
2023-02-28T12:14:12.063Z,54.60
2023-02-28T12:19:21.742Z,54.30
2023-02-28T12:24:50.468Z,54.20
2023-02-28T12:29:59.545Z,53.60
2023-02-28T12:35:07.190Z,53.90
2023-02-28T12:40:15.114Z,54.00
2023-02-28T12:45:23.158Z,53.60
2023-02-28T12:50:27.576Z,53.60
2023-02-28T12:55:40.536Z,53.80
2023-02-28T13:01:00.796Z,53.20
2023-02-28T13:06:17.607Z,52.90
2023-02-28T13:11:30.354Z,52.80
2023-02-28T13:17:14.224Z,52.70
2023-02-28T13:22:38.887Z,52.30
2023-02-28T13:27:43.819Z,52.90
2023-02-28T13:32:48.575Z,53.20
2023-02-28T13:37:52.862Z,53.10
2023-02-28T13:42:56.546Z,53.20
2023-02-28T13:48:05.451Z,53.10
2023-02-28T13:53:38.886Z,52.80
2023-02-28T13:58:51.212Z,52.40
2023-02-28T14:04:17.252Z,52.90
2023-02-28T14:09:26.969Z,52.40
2023-02-28T14:14:56.500Z,52.80
2023-02-28T14:20:01.442Z,52.40
2023-02-28T14:25:17.385Z,53.10
2023-02-28T14:30:56.115Z,52.90
2023-02-28T14:36:14.465Z,52.70
2023-02-28T14:41:30.985Z,52.90
2023-02-28T14:46:40.299Z,53.00
2023-02-28T14:51:45.213Z,53.20
2023-02-28T14:56:52.510Z,53.50
2023-02-28T15:02:21.169Z,53.30
2023-02-28T15:07:29.643Z,53.00
2023-02-28T15:12:33.046Z,53.40
2023-02-28T15:17:37.659Z,53.50
2023-02-28T15:22:43.040Z,53.60
2023-02-28T15:27:50.582Z,53.50
2023-02-28T15:33:19.773Z,53.60
2023-02-28T15:38:28.481Z,53.20
2023-02-28T15:43:33.168Z,53.30
2023-02-28T15:48:39.221Z,53.50
2023-02-28T15:53:51.128Z,53.40
2023-02-28T15:58:58.702Z,53.30
2023-02-28T16:04:05.106Z,53.50
2023-02-28T16:09:12.887Z,53.50
2023-02-28T16:14:19.004Z,53.50
2023-02-28T16:19:22.704Z,53.50
2023-02-28T16:24:29.975Z,53.70
2023-02-28T16:29:37.280Z,53.60
2023-02-28T16:34:44.123Z,53.70
2023-02-28T16:39:51.070Z,53.70
2023-02-28T16:44:57.209Z,53.70
2023-02-28T16:50:01.325Z,53.70
2023-02-28T16:55:07.616Z,53.70
2023-02-28T17:00:16.118Z,53.60
2023-02-28T17:05:20.378Z,53.50
2023-02-28T17:10:28.477Z,53.70
2023-02-28T17:15:32.211Z,53.70
2023-02-28T17:20:41.747Z,53.80
2023-02-28T17:25:57.942Z,53.80
2023-02-28T17:31:02.192Z,53.80
2023-02-28T17:36:08.061Z,53.80
2023-02-28T17:41:14.264Z,53.80
2023-02-28T17:46:21.814Z,53.90
2023-02-28T17:51:27.051Z,53.90
2023-02-28T17:56:40.134Z,53.90
2023-02-28T18:01:44.520Z,54.40
2023-02-28T18:06:52.590Z,54.10
2023-02-28T18:12:02.902Z,54.00
2023-02-28T18:17:09.534Z,53.90
2023-02-28T18:22:13.733Z,54.00
2023-02-28T18:27:20.019Z,54.00
2023-02-28T18:32:26.821Z,54.00
2023-02-28T18:37:31.845Z,53.90
2023-02-28T18:42:39.731Z,54.70
2023-02-28T18:47:45.480Z,54.10
2023-02-28T18:52:52.125Z,53.90
2023-02-28T18:57:59.679Z,53.90
2023-02-28T19:03:07.688Z,53.70
2023-02-28T19:08:12.834Z,55.90
2023-02-28T19:13:21.460Z,55.40
2023-02-28T19:18:26.827Z,54.70
2023-02-28T19:23:36.046Z,54.60
2023-02-28T19:28:46.001Z,54.30
2023-02-28T19:33:53.875Z,54.10
2023-02-28T19:39:01.398Z,54.10
2023-02-28T19:44:12.506Z,54.10
2023-02-28T19:49:21.685Z,54.00
2023-02-28T19:54:28.016Z,54.20
2023-02-28T19:59:39.527Z,54.10
2023-02-28T20:04:44.993Z,54.10
2023-02-28T20:09:51.715Z,54.10
2023-02-28T20:14:59.155Z,54.50
2023-02-28T20:20:04.177Z,54.40
2023-02-28T20:25:12.281Z,54.40
2023-02-28T20:30:22.562Z,54.60
2023-02-28T20:35:28.001Z,55.50
2023-02-28T20:40:32.720Z,55.10
2023-02-28T20:45:40.907Z,54.90
2023-02-28T20:50:52.594Z,54.80
2023-02-28T20:55:58.162Z,54.60
2023-02-28T21:01:05.519Z,54.70
2023-02-28T21:06:11.326Z,54.60
2023-02-28T21:11:21.016Z,54.50
2023-02-28T21:16:29.727Z,54.50
2023-02-28T21:21:36.327Z,54.40
2023-02-28T21:26:44.510Z,54.50
2023-02-28T21:31:51.723Z,54.60
2023-02-28T21:36:55.234Z,54.50
2023-02-28T21:42:04.313Z,54.50
2023-02-28T21:47:09.408Z,54.50
2023-02-28T21:52:12.827Z,54.30
2023-02-28T21:57:16.885Z,54.40
2023-02-28T22:02:21.917Z,54.40
2023-02-28T22:07:25.480Z,54.30
2023-02-28T22:12:31.540Z,54.40
2023-02-28T22:17:36.940Z,54.30
2023-02-28T22:22:40.798Z,54.30
2023-02-28T22:27:44.522Z,54.40
2023-02-28T22:32:49.446Z,54.40
2023-02-28T22:37:52.826Z,54.40
2023-02-28T22:42:57.278Z,54.50
2023-02-28T22:48:03.182Z,54.50
2023-02-28T22:53:06.601Z,54.50
2023-02-28T22:58:10.009Z,54.50
2023-02-28T23:03:14.959Z,54.50
2023-02-28T23:08:23.416Z,54.50
2023-02-28T23:13:27.005Z,54.60
2023-02-28T23:18:31.957Z,54.60
2023-02-28T23:23:35.948Z,54.70
2023-02-28T23:28:39.725Z,54.70
2023-02-28T23:33:44.826Z,54.70
2023-02-28T23:38:51.957Z,54.70
2023-02-28T23:43:56.727Z,54.70
2023-02-28T23:49:01.556Z,54.80
2023-02-28T23:54:05.655Z,54.80
2023-02-28T23:59:09.185Z,54.90
